sensor_id;sensor_type;location;lat;lon;timestamp;noise_LAeq;noise_LA_min;noise_LA_max;noise_LA01;noise_LA95
66459;Laerm;70605;52.550;4.730;2023-10-09T00:00:06;44.98;44.12;45.89;;
66459;Laerm;70605;52.550;4.730;2023-10-09T00:00:40;44.98;43.89;45.86;;
66459;Laerm;70605;52.550;4.730;2023-10-09T00:00:50;44.91;44.10;45.90;;
66459;Laerm;70605;52.550;4.730;2023-10-09T00:01:01;44.90;44.00;45.62;;
66459;Laerm;70605;52.550;4.730;2023-10-09T00:01:23;44.86;43.77;46.06;;
66459;Laerm;70605;52.550;4.730;2023-10-09T00:01:33;44.80;44.02;45.64;;
66459;Laerm;70605;52.550;4.730;2023-10-09T00:01:44;44.81;43.59;45.69;;
66459;Laerm;70605;52.550;4.730;2023-10-09T00:01:54;45.20;44.11;53.38;;
66459;Laerm;70605;52.550;4.730;2023-10-09T00:02:04;44.99;43.92;46.95;;
66459;Laerm;70605;52.550;4.730;2023-10-09T00:02:17;45.19;43.97;45.97;;
66459;Laerm;70605;52.550;4.730;2023-10-09T00:02:28;45.27;44.36;46.46;;
66459;Laerm;70605;52.550;4.730;2023-10-09T00:02:39;45.24;43.85;46.25;;
66459;Laerm;70605;52.550;4.730;2023-10-09T00:02:53;45.07;44.23;45.88;;
66459;Laerm;70605;52.550;4.730;2023-10-09T00:03:04;45.08;44.10;46.18;;
66459;Laerm;70605;52.550;4.730;2023-10-09T00:03:19;45.59;44.22;53.04;;
66459;Laerm;70605;52.550;4.730;2023-10-09T00:03:29;45.11;44.05;47.38;;
66459;Laerm;70605;52.550;4.730;2023-10-09T00:03:40;45.00;44.19;45.67;;
66459;Laerm;70605;52.550;4.730;2023-10-09T00:03:52;44.99;44.00;45.98;;
66459;Laerm;70605;52.550;4.730;2023-10-09T00:04:05;44.99;44.04;47.52;;
66459;Laerm;70605;52.550;4.730;2023-10-09T00:04:20;44.98;43.73;46.05;;
66459;Laerm;70605;52.550;4.730;2023-10-09T00:04:30;44.96;43.75;45.84;;
66459;Laerm;70605;52.550;4.730;2023-10-09T00:04:41;44.98;44.14;45.75;;
66459;Laerm;70605;52.550;4.730;2023-10-09T00:04:52;44.95;44.19;45.97;;
66459;Laerm;70605;52.550;4.730;2023-10-09T00:05:04;44.87;43.93;45.65;;
66459;Laerm;70605;52.550;4.730;2023-10-09T00:05:20;44.94;44.06;45.91;;
66459;Laerm;70605;52.550;4.730;2023-10-09T00:05:34;44.91;44.01;45.76;;
66459;Laerm;70605;52.550;4.730;2023-10-09T00:05:55;44.90;43.77;45.90;;
66459;Laerm;70605;52.550;4.730;2023-10-09T00:06:07;44.95;43.80;45.88;;
66459;Laerm;70605;52.550;4.730;2023-10-09T00:06:17;44.96;44.22;45.84;;
66459;Laerm;70605;52.550;4.730;2023-10-09T00:06:33;44.95;43.90;45.89;;
66459;Laerm;70605;52.550;4.730;2023-10-09T00:06:47;44.95;44.13;45.78;;
66459;Laerm;70605;52.550;4.730;2023-10-09T00:06:58;44.87;44.09;45.77;;
66459;Laerm;70605;52.550;4.730;2023-10-09T00:07:09;44.96;44.07;46.93;;
66459;Laerm;70605;52.550;4.730;2023-10-09T00:07:20;44.95;44.06;47.64;;
66459;Laerm;70605;52.550;4.730;2023-10-09T00:07:33;44.81;43.81;45.75;;
66459;Laerm;70605;52.550;4.730;2023-10-09T00:07:44;44.85;43.87;45.59;;
66459;Laerm;70605;52.550;4.730;2023-10-09T00:07:55;44.82;43.90;45.63;;
66459;Laerm;70605;52.550;4.730;2023-10-09T00:08:06;44.81;43.91;45.71;;
66459;Laerm;70605;52.550;4.730;2023-10-09T00:08:19;44.85;43.94;45.67;;
66459;Laerm;70605;52.550;4.730;2023-10-09T00:08:31;44.85;43.89;47.52;;
66459;Laerm;70605;52.550;4.730;2023-10-09T00:08:42;44.79;43.65;45.96;;
66459;Laerm;70605;52.550;4.730;2023-10-09T00:08:55;44.79;43.84;45.92;;
66459;Laerm;70605;52.550;4.730;2023-10-09T00:09:07;44.75;43.82;45.55;;
66459;Laerm;70605;52.550;4.730;2023-10-09T00:09:35;44.73;43.74;46.79;;
66459;Laerm;70605;52.550;4.730;2023-10-09T00:09:57;44.71;43.76;45.65;;
66459;Laerm;70605;52.550;4.730;2023-10-09T00:10:08;44.70;43.85;46.19;;
66459;Laerm;70605;52.550;4.730;2023-10-09T00:10:22;44.71;43.87;45.68;;
66459;Laerm;70605;52.550;4.730;2023-10-09T00:10:35;44.82;43.71;47.06;;
66459;Laerm;70605;52.550;4.730;2023-10-09T00:10:59;44.72;43.70;48.13;;
66459;Laerm;70605;52.550;4.730;2023-10-09T00:11:23;44.74;43.59;46.89;;
66459;Laerm;70605;52.550;4.730;2023-10-09T00:11:39;44.63;43.71;45.52;;
66459;Laerm;70605;52.550;4.730;2023-10-09T00:11:54;44.64;43.78;45.36;;
66459;Laerm;70605;52.550;4.730;2023-10-09T00:12:07;44.59;43.68;45.46;;
66459;Laerm;70605;52.550;4.730;2023-10-09T00:12:20;44.58;43.79;45.34;;
66459;Laerm;70605;52.550;4.730;2023-10-09T00:12:35;44.57;43.68;45.47;;
66459;Laerm;70605;52.550;4.730;2023-10-09T00:12:45;44.52;43.59;45.41;;
66459;Laerm;70605;52.550;4.730;2023-10-09T00:12:59;44.55;43.80;45.39;;
66459;Laerm;70605;52.550;4.730;2023-10-09T00:13:09;44.51;43.79;45.51;;
66459;Laerm;70605;52.550;4.730;2023-10-09T00:13:28;44.54;43.92;45.48;;
66459;Laerm;70605;52.550;4.730;2023-10-09T00:13:43;44.61;43.79;45.44;;
66459;Laerm;70605;52.550;4.730;2023-10-09T00:13:59;44.68;43.66;46.68;;
66459;Laerm;70605;52.550;4.730;2023-10-09T00:14:11;44.68;43.81;45.42;;
66459;Laerm;70605;52.550;4.730;2023-10-09T00:14:22;44.64;43.92;45.44;;
66459;Laerm;70605;52.550;4.730;2023-10-09T00:14:32;44.62;43.88;45.69;;
66459;Laerm;70605;52.550;4.730;2023-10-09T00:14:44;44.62;43.78;45.49;;
66459;Laerm;70605;52.550;4.730;2023-10-09T00:14:58;44.87;43.61;52.55;;
66459;Laerm;70605;52.550;4.730;2023-10-09T00:15:20;44.76;43.71;46.09;;
66459;Laerm;70605;52.550;4.730;2023-10-09T00:15:32;46.00;44.38;48.54;;
66459;Laerm;70605;52.550;4.730;2023-10-09T00:15:43;48.36;45.18;50.82;;
66459;Laerm;70605;52.550;4.730;2023-10-09T00:15:54;47.37;45.26;50.45;;
66459;Laerm;70605;52.550;4.730;2023-10-09T00:16:09;45.71;44.42;47.82;;
66459;Laerm;70605;52.550;4.730;2023-10-09T00:16:26;44.80;43.72;47.05;;
66459;Laerm;70605;52.550;4.730;2023-10-09T00:16:58;44.67;43.82;48.66;;
66459;Laerm;70605;52.550;4.730;2023-10-09T00:17:20;44.63;43.68;45.77;;
66459;Laerm;70605;52.550;4.730;2023-10-09T00:17:32;44.62;43.76;45.58;;
66459;Laerm;70605;52.550;4.730;2023-10-09T00:17:42;44.56;43.74;45.37;;
66459;Laerm;70605;52.550;4.730;2023-10-09T00:17:56;44.59;43.54;45.50;;
66459;Laerm;70605;52.550;4.730;2023-10-09T00:18:08;44.58;43.60;45.42;;
66459;Laerm;70605;52.550;4.730;2023-10-09T00:18:22;44.64;43.78;45.45;;
66459;Laerm;70605;52.550;4.730;2023-10-09T00:18:39;44.63;43.70;45.55;;
66459;Laerm;70605;52.550;4.730;2023-10-09T00:18:50;44.65;43.95;45.59;;
66459;Laerm;70605;52.550;4.730;2023-10-09T00:19:24;44.67;43.65;46.04;;
66459;Laerm;70605;52.550;4.730;2023-10-09T00:19:46;44.70;43.62;45.89;;
66459;Laerm;70605;52.550;4.730;2023-10-09T00:20:09;44.76;43.81;46.03;;
66459;Laerm;70605;52.550;4.730;2023-10-09T00:20:27;44.64;43.70;45.60;;
66459;Laerm;70605;52.550;4.730;2023-10-09T00:20:48;44.66;43.54;45.54;;
66459;Laerm;70605;52.550;4.730;2023-10-09T00:21:04;44.63;43.74;45.81;;
66459;Laerm;70605;52.550;4.730;2023-10-09T00:21:30;44.62;43.73;45.51;;
66459;Laerm;70605;52.550;4.730;2023-10-09T00:21:45;44.60;43.60;45.39;;
66459;Laerm;70605;52.550;4.730;2023-10-09T00:21:56;44.62;43.67;45.56;;
66459;Laerm;70605;52.550;4.730;2023-10-09T00:22:07;44.53;43.58;45.26;;
66459;Laerm;70605;52.550;4.730;2023-10-09T00:22:21;44.55;43.52;45.49;;
66459;Laerm;70605;52.550;4.730;2023-10-09T00:22:34;44.59;43.64;46.86;;
66459;Laerm;70605;52.550;4.730;2023-10-09T00:22:51;44.58;43.57;45.36;;
66459;Laerm;70605;52.550;4.730;2023-10-09T00:23:01;44.57;43.79;45.43;;
66459;Laerm;70605;52.550;4.730;2023-10-09T00:23:12;44.53;43.58;47.09;;
66459;Laerm;70605;52.550;4.730;2023-10-09T00:23:26;44.47;43.52;45.18;;
66459;Laerm;70605;52.550;4.730;2023-10-09T00:23:40;44.48;43.22;45.36;;
66459;Laerm;70605;52.550;4.730;2023-10-09T00:23:51;44.46;43.63;45.38;;
66459;Laerm;70605;52.550;4.730;2023-10-09T00:24:09;44.54;43.67;45.46;;
66459;Laerm;70605;52.550;4.730;2023-10-09T00:24:34;44.51;43.64;46.02;;
66459;Laerm;70605;52.550;4.730;2023-10-09T00:24:44;44.43;43.63;45.30;;
66459;Laerm;70605;52.550;4.730;2023-10-09T00:24:58;44.44;43.64;45.23;;
66459;Laerm;70605;52.550;4.730;2023-10-09T00:25:20;44.51;43.54;47.12;;
66459;Laerm;70605;52.550;4.730;2023-10-09T00:25:39;44.42;43.35;45.38;;
66459;Laerm;70605;52.550;4.730;2023-10-09T00:25:57;44.41;43.60;45.22;;
66459;Laerm;70605;52.550;4.730;2023-10-09T00:26:25;48.64;43.32;66.89;;
66459;Laerm;70605;52.550;4.730;2023-10-09T00:26:36;47.26;43.64;62.44;;
66459;Laerm;70605;52.550;4.730;2023-10-09T00:26:54;44.64;43.35;48.95;;
66459;Laerm;70605;52.550;4.730;2023-10-09T00:27:34;44.32;43.22;48.70;;
66459;Laerm;70605;52.550;4.730;2023-10-09T00:27:46;44.26;43.45;45.01;;
66459;Laerm;70605;52.550;4.730;2023-10-09T00:27:56;44.66;43.47;47.39;;
66459;Laerm;70605;52.550;4.730;2023-10-09T00:28:09;50.40;44.25;59.01;;
66459;Laerm;70605;52.550;4.730;2023-10-09T00:28:28;52.15;46.76;56.74;;
66459;Laerm;70605;52.550;4.730;2023-10-09T00:28:39;46.82;44.21;50.27;;
66459;Laerm;70605;52.550;4.730;2023-10-09T00:28:56;45.01;43.92;46.78;;
66459;Laerm;70605;52.550;4.730;2023-10-09T00:29:06;44.43;43.25;45.71;;
66459;Laerm;70605;52.550;4.730;2023-10-09T00:29:17;44.50;43.63;46.26;;
66459;Laerm;70605;52.550;4.730;2023-10-09T00:29:32;44.34;43.38;46.08;;
66459;Laerm;70605;52.550;4.730;2023-10-09T00:29:46;44.27;43.10;46.78;;
66459;Laerm;70605;52.550;4.730;2023-10-09T00:29:58;44.20;43.47;45.08;;
66459;Laerm;70605;52.550;4.730;2023-10-09T00:30:10;44.25;43.48;45.13;;
66459;Laerm;70605;52.550;4.730;2023-10-09T00:30:21;44.27;43.33;45.01;;
66459;Laerm;70605;52.550;4.730;2023-10-09T00:30:32;44.29;43.56;45.09;;
66459;Laerm;70605;52.550;4.730;2023-10-09T00:30:42;44.48;43.47;48.26;;
66459;Laerm;70605;52.550;4.730;2023-10-09T00:30:52;44.41;43.51;45.76;;
66459;Laerm;70605;52.550;4.730;2023-10-09T00:31:05;44.86;43.63;54.39;;
66459;Laerm;70605;52.550;4.730;2023-10-09T00:31:17;44.39;43.48;47.36;;
66459;Laerm;70605;52.550;4.730;2023-10-09T00:31:36;44.24;43.32;45.69;;
66459;Laerm;70605;52.550;4.730;2023-10-09T00:31:46;44.25;43.38;45.22;;
66459;Laerm;70605;52.550;4.730;2023-10-09T00:32:00;44.26;43.50;45.28;;
66459;Laerm;70605;52.550;4.730;2023-10-09T00:32:16;44.77;43.32;53.54;;
66459;Laerm;70605;52.550;4.730;2023-10-09T00:32:26;45.15;43.75;53.16;;
66459;Laerm;70605;52.550;4.730;2023-10-09T00:32:37;44.68;43.80;49.50;;
66459;Laerm;70605;52.550;4.730;2023-10-09T00:32:55;44.36;43.40;45.86;;
66459;Laerm;70605;52.550;4.730;2023-10-09T00:33:08;44.96;43.55;53.47;;
66459;Laerm;70605;52.550;4.730;2023-10-09T00:33:20;44.26;43.55;45.72;;
66459;Laerm;70605;52.550;4.730;2023-10-09T00:33:32;46.73;43.55;59.74;;
66459;Laerm;70605;52.550;4.730;2023-10-09T00:33:42;47.96;43.47;63.03;;
66459;Laerm;70605;52.550;4.730;2023-10-09T00:33:53;45.30;43.56;54.17;;
66459;Laerm;70605;52.550;4.730;2023-10-09T00:34:05;44.22;43.32;45.25;;
66459;Laerm;70605;52.550;4.730;2023-10-09T00:34:16;44.18;43.34;44.96;;
66459;Laerm;70605;52.550;4.730;2023-10-09T00:34:29;44.24;43.18;46.07;;
66459;Laerm;70605;52.550;4.730;2023-10-09T00:34:39;44.23;43.16;45.15;;
66459;Laerm;70605;52.550;4.730;2023-10-09T00:34:50;44.26;43.38;45.17;;
66459;Laerm;70605;52.550;4.730;2023-10-09T00:35:00;44.26;43.46;48.16;;
66459;Laerm;70605;52.550;4.730;2023-10-09T00:35:30;47.04;43.53;54.33;;
66459;Laerm;70605;52.550;4.730;2023-10-09T00:35:47;52.34;46.39;57.11;;
66459;Laerm;70605;52.550;4.730;2023-10-09T00:36:04;46.21;43.98;53.00;;
66459;Laerm;70605;52.550;4.730;2023-10-09T00:36:20;44.63;43.39;53.21;;
66459;Laerm;70605;52.550;4.730;2023-10-09T00:36:37;44.31;43.50;46.46;;
66459;Laerm;70605;52.550;4.730;2023-10-09T00:37:00;44.19;43.17;45.07;;
66459;Laerm;70605;52.550;4.730;2023-10-09T00:37:14;44.16;43.43;44.97;;
66459;Laerm;70605;52.550;4.730;2023-10-09T00:37:32;44.13;43.32;45.00;;
66459;Laerm;70605;52.550;4.730;2023-10-09T00:37:44;44.18;43.32;48.23;;
66459;Laerm;70605;52.550;4.730;2023-10-09T00:37:55;44.80;43.42;53.61;;
66459;Laerm;70605;52.550;4.730;2023-10-09T00:38:10;44.92;43.49;49.65;;
66459;Laerm;70605;52.550;4.730;2023-10-09T00:38:41;51.78;44.06;59.59;;
66459;Laerm;70605;52.550;4.730;2023-10-09T00:38:56;46.13;43.95;51.33;;
66459;Laerm;70605;52.550;4.730;2023-10-09T00:39:09;44.39;43.49;45.67;;
66459;Laerm;70605;52.550;4.730;2023-10-09T00:39:30;44.14;43.05;47.12;;
66459;Laerm;70605;52.550;4.730;2023-10-09T00:40:00;44.07;43.00;46.89;;
66459;Laerm;70605;52.550;4.730;2023-10-09T00:40:22;44.13;43.32;45.05;;
66459;Laerm;70605;52.550;4.730;2023-10-09T00:40:38;44.12;43.10;44.91;;
66459;Laerm;70605;52.550;4.730;2023-10-09T00:40:55;44.31;42.76;50.05;;
66459;Laerm;70605;52.550;4.730;2023-10-09T00:41:18;44.02;43.23;44.93;;
66459;Laerm;70605;52.550;4.730;2023-10-09T00:41:32;44.03;43.25;44.68;;
66459;Laerm;70605;52.550;4.730;2023-10-09T00:41:45;44.08;43.09;45.01;;
66459;Laerm;70605;52.550;4.730;2023-10-09T00:41:55;44.10;43.22;45.49;;
66459;Laerm;70605;52.550;4.730;2023-10-09T00:42:09;44.04;42.86;44.81;;
66459;Laerm;70605;52.550;4.730;2023-10-09T00:42:25;44.44;43.24;48.72;;
66459;Laerm;70605;52.550;4.730;2023-10-09T00:42:40;44.38;43.26;52.46;;
66459;Laerm;70605;52.550;4.730;2023-10-09T00:42:50;44.77;43.34;53.73;;
66459;Laerm;70605;52.550;4.730;2023-10-09T00:43:05;45.07;43.52;59.22;;
66459;Laerm;70605;52.550;4.730;2023-10-09T00:43:22;44.07;42.99;44.95;;
66459;Laerm;70605;52.550;4.730;2023-10-09T00:43:39;44.08;43.03;45.86;;
66459;Laerm;70605;52.550;4.730;2023-10-09T00:43:53;44.20;42.96;51.25;;
66459;Laerm;70605;52.550;4.730;2023-10-09T00:44:04;44.09;43.12;45.10;;
66459;Laerm;70605;52.550;4.730;2023-10-09T00:44:17;44.08;43.24;44.87;;
66459;Laerm;70605;52.550;4.730;2023-10-09T00:44:28;44.11;43.33;45.85;;
66459;Laerm;70605;52.550;4.730;2023-10-09T00:44:48;44.07;43.13;46.35;;
66459;Laerm;70605;52.550;4.730;2023-10-09T00:44:59;44.05;43.14;46.27;;
66459;Laerm;70605;52.550;4.730;2023-10-09T00:45:19;48.02;43.20;73.08;;
66459;Laerm;70605;52.550;4.730;2023-10-09T00:45:37;45.06;43.00;56.89;;
66459;Laerm;70605;52.550;4.730;2023-10-09T00:45:50;44.03;42.76;48.25;;
66459;Laerm;70605;52.550;4.730;2023-10-09T00:46:01;43.98;42.98;50.38;;
66459;Laerm;70605;52.550;4.730;2023-10-09T00:46:30;62.99;42.54;92.16;;
66459;Laerm;70605;52.550;4.730;2023-10-09T00:46:40;48.89;47.39;55.31;;
66459;Laerm;70605;52.550;4.730;2023-10-09T00:46:53;48.11;46.76;51.86;;
66459;Laerm;70605;52.550;4.730;2023-10-09T00:47:05;47.96;46.83;51.84;;
66459;Laerm;70605;52.550;4.730;2023-10-09T00:47:20;48.13;46.65;52.07;;
66459;Laerm;70605;52.550;4.730;2023-10-09T00:47:31;47.79;46.42;52.11;;
66459;Laerm;70605;52.550;4.730;2023-10-09T00:47:44;48.00;46.14;52.90;;
66459;Laerm;70605;52.550;4.730;2023-10-09T00:47:57;47.75;46.22;51.60;;
66459;Laerm;70605;52.550;4.730;2023-10-09T00:48:09;47.61;46.01;52.72;;
66459;Laerm;70605;52.550;4.730;2023-10-09T00:48:19;47.49;46.07;51.47;;
66459;Laerm;70605;52.550;4.730;2023-10-09T00:48:41;47.22;45.88;52.22;;
66459;Laerm;70605;52.550;4.730;2023-10-09T00:48:52;47.16;45.91;49.99;;
66459;Laerm;70605;52.550;4.730;2023-10-09T00:49:03;46.98;45.69;50.38;;
66459;Laerm;70605;52.550;4.730;2023-10-09T00:49:20;47.02;45.69;50.81;;
66459;Laerm;70605;52.550;4.730;2023-10-09T00:49:32;47.04;45.78;51.04;;
66459;Laerm;70605;52.550;4.730;2023-10-09T00:49:43;46.95;45.68;51.02;;
66459;Laerm;70605;52.550;4.730;2023-10-09T00:50:01;46.79;45.57;50.64;;
66459;Laerm;70605;52.550;4.730;2023-10-09T00:50:21;46.84;45.48;53.20;;
66459;Laerm;70605;52.550;4.730;2023-10-09T00:50:31;46.82;45.68;52.30;;
66459;Laerm;70605;52.550;4.730;2023-10-09T00:50:46;46.73;45.46;53.31;;
66459;Laerm;70605;52.550;4.730;2023-10-09T00:51:02;46.62;45.25;54.20;;
66459;Laerm;70605;52.550;4.730;2023-10-09T00:51:23;46.49;45.42;51.86;;
66459;Laerm;70605;52.550;4.730;2023-10-09T00:51:34;46.37;45.22;49.40;;
66459;Laerm;70605;52.550;4.730;2023-10-09T00:51:46;46.26;44.97;50.37;;
66459;Laerm;70605;52.550;4.730;2023-10-09T00:52:06;46.34;45.19;51.06;;
66459;Laerm;70605;52.550;4.730;2023-10-09T00:52:31;46.26;45.16;54.04;;
66459;Laerm;70605;52.550;4.730;2023-10-09T00:52:47;46.17;44.92;51.16;;
66459;Laerm;70605;52.550;4.730;2023-10-09T00:53:11;45.99;45.04;52.25;;
66459;Laerm;70605;52.550;4.730;2023-10-09T00:53:28;45.93;44.88;46.88;;
66459;Laerm;70605;52.550;4.730;2023-10-09T00:53:46;45.93;45.02;49.65;;
66459;Laerm;70605;52.550;4.730;2023-10-09T00:54:08;45.82;44.82;46.80;;
66459;Laerm;70605;52.550;4.730;2023-10-09T00:54:24;45.84;45.03;47.61;;
66459;Laerm;70605;52.550;4.730;2023-10-09T00:54:38;45.94;44.96;47.76;;
66459;Laerm;70605;52.550;4.730;2023-10-09T00:54:51;46.27;44.88;50.70;;
66459;Laerm;70605;52.550;4.730;2023-10-09T00:55:01;46.27;44.93;49.74;;
66459;Laerm;70605;52.550;4.730;2023-10-09T00:55:14;46.86;44.89;51.37;;
66459;Laerm;70605;52.550;4.730;2023-10-09T00:55:37;46.31;44.65;52.86;;
66459;Laerm;70605;52.550;4.730;2023-10-09T00:55:54;45.63;44.74;46.53;;
66459;Laerm;70605;52.550;4.730;2023-10-09T00:56:05;45.63;44.65;47.11;;
66459;Laerm;70605;52.550;4.730;2023-10-09T00:56:21;45.77;44.81;50.04;;
66459;Laerm;70605;52.550;4.730;2023-10-09T00:56:35;45.76;44.48;51.51;;
66459;Laerm;70605;52.550;4.730;2023-10-09T00:56:49;45.58;44.72;48.06;;
66459;Laerm;70605;52.550;4.730;2023-10-09T00:57:07;45.53;44.39;46.55;;
66459;Laerm;70605;52.550;4.730;2023-10-09T00:57:18;45.53;44.83;46.43;;
66459;Laerm;70605;52.550;4.730;2023-10-09T00:57:34;45.49;44.52;46.32;;
66459;Laerm;70605;52.550;4.730;2023-10-09T00:57:46;45.46;44.45;46.44;;
66459;Laerm;70605;52.550;4.730;2023-10-09T00:58:16;45.46;44.48;46.75;;
66459;Laerm;70605;52.550;4.730;2023-10-09T00:58:33;45.59;44.63;51.30;;
66459;Laerm;70605;52.550;4.730;2023-10-09T00:58:46;46.76;44.63;54.01;;
66459;Laerm;70605;52.550;4.730;2023-10-09T00:58:59;46.99;44.59;54.81;;
66459;Laerm;70605;52.550;4.730;2023-10-09T00:59:20;47.35;44.33;55.61;;
66459;Laerm;70605;52.550;4.730;2023-10-09T00:59:32;47.36;44.54;56.34;;
66459;Laerm;70605;52.550;4.730;2023-10-09T00:59:44;47.72;44.43;55.42;;
66459;Laerm;70605;52.550;4.730;2023-10-09T00:59:58;47.63;44.43;55.71;;
66459;Laerm;70605;52.550;4.730;2023-10-09T01:00:09;46.67;44.36;55.77;;
66459;Laerm;70605;52.550;4.730;2023-10-09T01:00:42;45.33;44.22;49.38;;
66459;Laerm;70605;52.550;4.730;2023-10-09T01:00:56;45.31;44.25;48.49;;
66459;Laerm;70605;52.550;4.730;2023-10-09T01:01:09;45.33;44.44;48.40;;
66459;Laerm;70605;52.550;4.730;2023-10-09T01:01:26;45.32;44.53;46.39;;
66459;Laerm;70605;52.550;4.730;2023-10-09T01:01:44;45.33;44.31;47.64;;
66459;Laerm;70605;52.550;4.730;2023-10-09T01:02:06;45.37;44.32;49.40;;
66459;Laerm;70605;52.550;4.730;2023-10-09T01:02:16;45.28;44.31;46.04;;
66459;Laerm;70605;52.550;4.730;2023-10-09T01:02:29;45.27;44.23;47.42;;
66459;Laerm;70605;52.550;4.730;2023-10-09T01:02:45;45.54;44.23;54.95;;
66459;Laerm;70605;52.550;4.730;2023-10-09T01:02:56;45.58;44.51;53.83;;
66459;Laerm;70605;52.550;4.730;2023-10-09T01:03:27;45.27;44.04;52.62;;
66459;Laerm;70605;52.550;4.730;2023-10-09T01:03:38;45.14;44.33;46.73;;
66459;Laerm;70605;52.550;4.730;2023-10-09T01:03:50;45.23;44.29;53.18;;
66459;Laerm;70605;52.550;4.730;2023-10-09T01:04:02;45.13;44.35;45.89;;
66459;Laerm;70605;52.550;4.730;2023-10-09T01:04:25;45.12;44.26;46.13;;
66459;Laerm;70605;52.550;4.730;2023-10-09T01:04:38;45.12;44.37;46.01;;
66459;Laerm;70605;52.550;4.730;2023-10-09T01:04:53;45.11;44.20;45.96;;
66459;Laerm;70605;52.550;4.730;2023-10-09T01:05:04;45.12;44.17;45.95;;
66459;Laerm;70605;52.550;4.730;2023-10-09T01:05:29;45.09;44.16;46.58;;
66459;Laerm;70605;52.550;4.730;2023-10-09T01:05:39;45.07;44.19;45.87;;
66459;Laerm;70605;52.550;4.730;2023-10-09T01:06:01;45.08;44.07;46.06;;
66459;Laerm;70605;52.550;4.730;2023-10-09T01:06:21;45.06;43.90;46.08;;
66459;Laerm;70605;52.550;4.730;2023-10-09T01:06:46;45.06;44.02;45.90;;
66459;Laerm;70605;52.550;4.730;2023-10-09T01:07:15;45.06;44.13;46.46;;
66459;Laerm;70605;52.550;4.730;2023-10-09T01:07:26;45.06;43.99;46.01;;
66459;Laerm;70605;52.550;4.730;2023-10-09T01:07:38;45.04;44.26;45.92;;
66459;Laerm;70605;52.550;4.730;2023-10-09T01:07:54;45.06;44.19;46.27;;
66459;Laerm;70605;52.550;4.730;2023-10-09T01:08:08;45.02;44.19;46.75;;
66459;Laerm;70605;52.550;4.730;2023-10-09T01:08:27;44.99;44.11;45.98;;
66459;Laerm;70605;52.550;4.730;2023-10-09T01:08:53;45.00;44.17;46.30;;
66459;Laerm;70605;52.550;4.730;2023-10-09T01:09:24;44.99;43.94;46.19;;
66459;Laerm;70605;52.550;4.730;2023-10-09T01:09:34;44.98;44.19;46.37;;
66459;Laerm;70605;52.550;4.730;2023-10-09T01:09:47;44.98;44.10;45.95;;
66459;Laerm;70605;52.550;4.730;2023-10-09T01:10:01;44.97;44.12;45.80;;
66459;Laerm;70605;52.550;4.730;2023-10-09T01:10:20;44.99;44.06;46.03;;
66459;Laerm;70605;52.550;4.730;2023-10-09T01:10:43;44.96;44.20;46.53;;
66459;Laerm;70605;52.550;4.730;2023-10-09T01:11:00;44.94;43.96;45.93;;
66459;Laerm;70605;52.550;4.730;2023-10-09T01:11:20;44.93;43.97;45.73;;
66459;Laerm;70605;52.550;4.730;2023-10-09T01:11:42;44.90;44.03;45.81;;
66459;Laerm;70605;52.550;4.730;2023-10-09T01:12:12;44.91;43.90;47.33;;
66459;Laerm;70605;52.550;4.730;2023-10-09T01:12:29;44.89;44.08;45.99;;
66459;Laerm;70605;52.550;4.730;2023-10-09T01:12:39;44.91;44.14;46.44;;
66459;Laerm;70605;52.550;4.730;2023-10-09T01:12:54;44.88;44.02;45.88;;
66459;Laerm;70605;52.550;4.730;2023-10-09T01:13:05;44.87;43.98;45.61;;
66459;Laerm;70605;52.550;4.730;2023-10-09T01:13:19;44.87;43.96;49.15;;
66459;Laerm;70605;52.550;4.730;2023-10-09T01:13:30;44.87;43.99;45.89;;
66459;Laerm;70605;52.550;4.730;2023-10-09T01:13:51;44.84;43.92;45.78;;
66459;Laerm;70605;52.550;4.730;2023-10-09T01:14:01;44.90;44.14;45.92;;
66459;Laerm;70605;52.550;4.730;2023-10-09T01:14:17;44.85;44.00;45.89;;
66459;Laerm;70605;52.550;4.730;2023-10-09T01:14:31;44.84;43.96;45.70;;
66459;Laerm;70605;52.550;4.730;2023-10-09T01:14:46;44.82;43.99;45.68;;
66459;Laerm;70605;52.550;4.730;2023-10-09T01:15:02;44.83;44.01;45.69;;
66459;Laerm;70605;52.550;4.730;2023-10-09T01:15:16;44.81;43.80;45.68;;
66459;Laerm;70605;52.550;4.730;2023-10-09T01:15:46;44.83;43.77;45.62;;
66459;Laerm;70605;52.550;4.730;2023-10-09T01:15:57;44.87;44.03;47.12;;
66459;Laerm;70605;52.550;4.730;2023-10-09T01:16:12;44.82;43.89;45.58;;
66459;Laerm;70605;52.550;4.730;2023-10-09T01:16:26;44.79;43.68;45.85;;
66459;Laerm;70605;52.550;4.730;2023-10-09T01:16:41;44.83;43.78;45.63;;
66459;Laerm;70605;52.550;4.730;2023-10-09T01:16:52;44.82;44.04;45.47;;
66459;Laerm;70605;52.550;4.730;2023-10-09T01:17:04;44.79;43.90;45.53;;
66459;Laerm;70605;52.550;4.730;2023-10-09T01:17:18;44.88;43.81;49.78;;
66459;Laerm;70605;52.550;4.730;2023-10-09T01:17:40;44.77;43.81;45.67;;
66459;Laerm;70605;52.550;4.730;2023-10-09T01:17:55;44.84;43.90;50.74;;
66459;Laerm;70605;52.550;4.730;2023-10-09T01:18:08;44.78;43.74;45.76;;
66459;Laerm;70605;52.550;4.730;2023-10-09T01:18:19;44.80;43.72;45.69;;
66459;Laerm;70605;52.550;4.730;2023-10-09T01:18:30;44.79;43.86;45.57;;
66459;Laerm;70605;52.550;4.730;2023-10-09T01:18:47;44.79;43.94;45.85;;
66459;Laerm;70605;52.550;4.730;2023-10-09T01:19:00;44.78;43.72;45.62;;
66459;Laerm;70605;52.550;4.730;2023-10-09T01:19:16;44.72;43.78;45.81;;
66459;Laerm;70605;52.550;4.730;2023-10-09T01:19:37;44.76;43.77;46.79;;
66459;Laerm;70605;52.550;4.730;2023-10-09T01:19:48;44.72;43.81;45.85;;
66459;Laerm;70605;52.550;4.730;2023-10-09T01:19:58;44.75;43.98;45.75;;
66459;Laerm;70605;52.550;4.730;2023-10-09T01:20:13;44.76;43.81;45.45;;
66459;Laerm;70605;52.550;4.730;2023-10-09T01:20:26;44.73;43.93;45.59;;
66459;Laerm;70605;52.550;4.730;2023-10-09T01:20:40;44.76;44.04;45.59;;
66459;Laerm;70605;52.550;4.730;2023-10-09T01:20:52;44.69;43.81;45.61;;
66459;Laerm;70605;52.550;4.730;2023-10-09T01:21:02;44.73;43.90;45.67;;
66459;Laerm;70605;52.550;4.730;2023-10-09T01:21:13;44.81;43.93;45.76;;
66459;Laerm;70605;52.550;4.730;2023-10-09T01:21:24;44.70;43.60;45.48;;
66459;Laerm;70605;52.550;4.730;2023-10-09T01:21:36;44.73;43.85;45.45;;
66459;Laerm;70605;52.550;4.730;2023-10-09T01:21:46;44.73;43.66;45.66;;
66459;Laerm;70605;52.550;4.730;2023-10-09T01:21:58;44.74;43.93;45.52;;
66459;Laerm;70605;52.550;4.730;2023-10-09T01:22:22;44.73;43.69;45.46;;
66459;Laerm;70605;52.550;4.730;2023-10-09T01:22:32;44.74;44.01;45.59;;
66459;Laerm;70605;52.550;4.730;2023-10-09T01:22:43;44.71;43.92;46.92;;
66459;Laerm;70605;52.550;4.730;2023-10-09T01:23:00;44.69;43.79;45.55;;
66459;Laerm;70605;52.550;4.730;2023-10-09T01:23:10;44.70;43.86;45.49;;
66459;Laerm;70605;52.550;4.730;2023-10-09T01:23:21;44.71;43.91;45.42;;
66459;Laerm;70605;52.550;4.730;2023-10-09T01:23:31;44.69;43.94;45.50;;
66459;Laerm;70605;52.550;4.730;2023-10-09T01:23:41;44.73;43.96;45.83;;
66459;Laerm;70605;52.550;4.730;2023-10-09T01:24:08;44.67;43.70;45.57;;
66459;Laerm;70605;52.550;4.730;2023-10-09T01:24:19;44.68;43.82;45.47;;
66459;Laerm;70605;52.550;4.730;2023-10-09T01:24:30;44.66;43.99;45.37;;
66459;Laerm;70605;52.550;4.730;2023-10-09T01:24:41;44.67;43.83;45.52;;
66459;Laerm;70605;52.550;4.730;2023-10-09T01:24:53;44.69;43.71;45.60;;